aviador You're here:

KECG Decoded Metar

ELIZABETH CITY in NC, USA
Report Time2017-11-20 04:54:00
UTC Time2017-11-20 05:37:22
Flight Rules vfr VFR
Wind270° at 09 kt
W.Decomp.*RWY 28: 9.0 kt HW 0.5 kt LCW
RWY 19: 0.5 kt HW 9.0 kt RCW
W.Rank270° ranks 18
Current wind is above 270° avg. (7.5)
Visibility9999 m
Phenomena:N/A
Clouds:N/A
Expected CloudBase > 1,600 ft AGL from Temp-Dew spread
CeilingNone
Temp04°C (ISA -11)
Dew Point00°C (75% RH)
AAT-1.2°C
QNH1017 hPa
Density Alt-1,342 ft
Elevation36 ft
Report Wrong Elevation
Raw Report
KECG 200454Z AUTO 27009KT 10SM CLR 04/00 A3004 RMK AO2 SLP172
T00440000 401890044=

Extra information for KECG:More info

Metar Taf Metar & Taf Last 4 Metars F.Rules Stats Wind Profile Meteogram Temp Stats Airport Information Weather charts Add Link Nearby VenuesMetar ALERT Operation Metar Decoded Social comments

AIRNAV info for KECG